sensor_id;sensor_type;location;lat;lon;timestamp;P1;durP1;ratioP1;P2;durP2;ratioP2
11767;SDS011;5941;57.652;12.514;2023-04-07T00:00:50;3.97;;;1.97;;
11767;SDS011;5941;57.652;12.514;2023-04-07T00:03:16;2.13;;;1.77;;
11767;SDS011;5941;57.652;12.514;2023-04-07T00:05:42;3.03;;;1.93;;
11767;SDS011;5941;57.652;12.514;2023-04-07T00:08:08;3.17;;;1.97;;
11767;SDS011;5941;57.652;12.514;2023-04-07T00:10:34;2.20;;;1.80;;
11767;SDS011;5941;57.652;12.514;2023-04-07T00:13:00;2.60;;;1.83;;
11767;SDS011;5941;57.652;12.514;2023-04-07T00:15:26;3.83;;;1.70;;
11767;SDS011;5941;57.652;12.514;2023-04-07T00:17:52;2.73;;;2.00;;
11767;SDS011;5941;57.652;12.514;2023-04-07T00:20:18;3.27;;;1.90;;
11767;SDS011;5941;57.652;12.514;2023-04-07T00:22:44;2.90;;;1.90;;
11767;SDS011;5941;57.652;12.514;2023-04-07T00:25:10;2.47;;;1.47;;
11767;SDS011;5941;57.652;12.514;2023-04-07T00:27:36;2.60;;;1.70;;
11767;SDS011;5941;57.652;12.514;2023-04-07T00:30:02;2.20;;;1.83;;
11767;SDS011;5941;57.652;12.514;2023-04-07T00:32:28;3.67;;;1.80;;
11767;SDS011;5941;57.652;12.514;2023-04-07T00:34:54;2.60;;;1.67;;
11767;SDS011;5941;57.652;12.514;2023-04-07T00:37:20;2.30;;;1.73;;
11767;SDS011;5941;57.652;12.514;2023-04-07T00:39:46;2.77;;;2.00;;
11767;SDS011;5941;57.652;12.514;2023-04-07T00:42:12;2.37;;;1.83;;
11767;SDS011;5941;57.652;12.514;2023-04-07T00:44:38;2.07;;;1.67;;
11767;SDS011;5941;57.652;12.514;2023-04-07T00:47:04;2.17;;;1.70;;
11767;SDS011;5941;57.652;12.514;2023-04-07T00:49:30;2.97;;;1.80;;
11767;SDS011;5941;57.652;12.514;2023-04-07T00:51:57;6.13;;;1.90;;
11767;SDS011;5941;57.652;12.514;2023-04-07T00:54:23;2.63;;;1.97;;
11767;SDS011;5941;57.652;12.514;2023-04-07T00:56:49;3.67;;;1.83;;
11767;SDS011;5941;57.652;12.514;2023-04-07T00:59:15;2.10;;;1.80;;
11767;SDS011;5941;57.652;12.514;2023-04-07T01:01:47;2.10;;;1.70;;
11767;SDS011;5941;57.652;12.514;2023-04-07T01:06:46;2.10;;;1.87;;
11767;SDS011;5941;57.652;12.514;2023-04-07T01:09:15;1.93;;;1.73;;
11767;SDS011;5941;57.652;12.514;2023-04-07T01:11:43;2.27;;;1.70;;
11767;SDS011;5941;57.652;12.514;2023-04-07T01:14:10;1.87;;;1.60;;
11767;SDS011;5941;57.652;12.514;2023-04-07T01:16:47;2.33;;;1.60;;
11767;SDS011;5941;57.652;12.514;2023-04-07T01:21:40;1.90;;;1.70;;
11767;SDS011;5941;57.652;12.514;2023-04-07T01:26:37;4.17;;;1.80;;
11767;SDS011;5941;57.652;12.514;2023-04-07T01:29:10;3.57;;;2.00;;
11767;SDS011;5941;57.652;12.514;2023-04-07T01:31:38;2.47;;;1.77;;
11767;SDS011;5941;57.652;12.514;2023-04-07T01:34:05;5.67;;;1.80;;
11767;SDS011;5941;57.652;12.514;2023-04-07T01:36:31;1.70;;;1.60;;
11767;SDS011;5941;57.652;12.514;2023-04-07T01:38:58;3.10;;;1.80;;
11767;SDS011;5941;57.652;12.514;2023-04-07T01:41:24;4.13;;;1.87;;
11767;SDS011;5941;57.652;12.514;2023-04-07T01:43:51;2.20;;;1.70;;
11767;SDS011;5941;57.652;12.514;2023-04-07T01:46:18;2.90;;;2.20;;
11767;SDS011;5941;57.652;12.514;2023-04-07T01:48:45;1.97;;;1.67;;
11767;SDS011;5941;57.652;12.514;2023-04-07T01:51:12;2.70;;;1.70;;
11767;SDS011;5941;57.652;12.514;2023-04-07T01:53:42;2.77;;;1.70;;
11767;SDS011;5941;57.652;12.514;2023-04-07T01:56:08;2.83;;;1.57;;
11767;SDS011;5941;57.652;12.514;2023-04-07T01:58:35;3.77;;;1.93;;
11767;SDS011;5941;57.652;12.514;2023-04-07T02:01:01;2.20;;;1.60;;
11767;SDS011;5941;57.652;12.514;2023-04-07T02:03:29;2.33;;;1.93;;
11767;SDS011;5941;57.652;12.514;2023-04-07T02:05:56;3.43;;;1.70;;
11767;SDS011;5941;57.652;12.514;2023-04-07T02:08:23;2.83;;;2.10;;
11767;SDS011;5941;57.652;12.514;2023-04-07T02:10:50;4.80;;;1.87;;
11767;SDS011;5941;57.652;12.514;2023-04-07T02:13:18;2.37;;;1.90;;
11767;SDS011;5941;57.652;12.514;2023-04-07T02:15:45;2.83;;;1.80;;
11767;SDS011;5941;57.652;12.514;2023-04-07T02:18:11;2.33;;;1.70;;
11767;SDS011;5941;57.652;12.514;2023-04-07T02:20:38;1.70;;;1.43;;
11767;SDS011;5941;57.652;12.514;2023-04-07T02:23:06;3.50;;;2.00;;
11767;SDS011;5941;57.652;12.514;2023-04-07T02:25:32;2.90;;;1.80;;
11767;SDS011;5941;57.652;12.514;2023-04-07T02:27:59;2.40;;;1.70;;
11767;SDS011;5941;57.652;12.514;2023-04-07T02:30:25;2.97;;;1.73;;
11767;SDS011;5941;57.652;12.514;2023-04-07T02:32:52;2.37;;;1.70;;
11767;SDS011;5941;57.652;12.514;2023-04-07T02:35:18;3.10;;;2.00;;
11767;SDS011;5941;57.652;12.514;2023-04-07T02:37:45;3.07;;;1.97;;
11767;SDS011;5941;57.652;12.514;2023-04-07T02:40:11;1.87;;;1.73;;
11767;SDS011;5941;57.652;12.514;2023-04-07T02:42:37;4.57;;;1.73;;
11767;SDS011;5941;57.652;12.514;2023-04-07T02:45:04;4.27;;;1.80;;
11767;SDS011;5941;57.652;12.514;2023-04-07T02:47:31;6.70;;;1.97;;
11767;SDS011;5941;57.652;12.514;2023-04-07T02:49:58;1.60;;;1.50;;
11767;SDS011;5941;57.652;12.514;2023-04-07T02:52:24;2.70;;;1.80;;
11767;SDS011;5941;57.652;12.514;2023-04-07T02:54:50;4.30;;;2.10;;
11767;SDS011;5941;57.652;12.514;2023-04-07T02:57:16;4.67;;;1.80;;
11767;SDS011;5941;57.652;12.514;2023-04-07T02:59:42;2.00;;;1.67;;
11767;SDS011;5941;57.652;12.514;2023-04-07T03:02:08;2.50;;;1.50;;
11767;SDS011;5941;57.652;12.514;2023-04-07T03:04:34;3.47;;;1.70;;
11767;SDS011;5941;57.652;12.514;2023-04-07T03:07:00;2.00;;;1.73;;
11767;SDS011;5941;57.652;12.514;2023-04-07T03:09:26;2.90;;;1.73;;
11767;SDS011;5941;57.652;12.514;2023-04-07T03:11:52;2.50;;;1.93;;
11767;SDS011;5941;57.652;12.514;2023-04-07T03:14:18;1.93;;;1.57;;
11767;SDS011;5941;57.652;12.514;2023-04-07T03:16:45;2.80;;;1.70;;
11767;SDS011;5941;57.652;12.514;2023-04-07T03:19:11;4.07;;;2.00;;
11767;SDS011;5941;57.652;12.514;2023-04-07T03:21:37;2.27;;;1.53;;
11767;SDS011;5941;57.652;12.514;2023-04-07T03:24:03;2.17;;;1.70;;
11767;SDS011;5941;57.652;12.514;2023-04-07T03:26:29;3.20;;;1.70;;
11767;SDS011;5941;57.652;12.514;2023-04-07T03:28:55;4.23;;;1.73;;
11767;SDS011;5941;57.652;12.514;2023-04-07T03:31:21;2.73;;;1.70;;
11767;SDS011;5941;57.652;12.514;2023-04-07T03:33:48;2.93;;;1.83;;
11767;SDS011;5941;57.652;12.514;2023-04-07T03:36:14;1.70;;;1.60;;
11767;SDS011;5941;57.652;12.514;2023-04-07T03:38:41;1.77;;;1.60;;
11767;SDS011;5941;57.652;12.514;2023-04-07T03:41:07;1.73;;;1.50;;
11767;SDS011;5941;57.652;12.514;2023-04-07T03:43:33;2.37;;;1.60;;
11767;SDS011;5941;57.652;12.514;2023-04-07T03:46:00;2.40;;;1.93;;
11767;SDS011;5941;57.652;12.514;2023-04-07T03:48:25;3.20;;;1.83;;
11767;SDS011;5941;57.652;12.514;2023-04-07T03:50:51;2.47;;;1.70;;
11767;SDS011;5941;57.652;12.514;2023-04-07T03:53:17;4.50;;;1.80;;
11767;SDS011;5941;57.652;12.514;2023-04-07T03:55:43;2.23;;;1.90;;
11767;SDS011;5941;57.652;12.514;2023-04-07T03:58:10;4.80;;;1.90;;
11767;SDS011;5941;57.652;12.514;2023-04-07T04:00:36;2.47;;;1.80;;
11767;SDS011;5941;57.652;12.514;2023-04-07T04:03:02;2.30;;;1.80;;
11767;SDS011;5941;57.652;12.514;2023-04-07T04:05:28;3.03;;;1.90;;
11767;SDS011;5941;57.652;12.514;2023-04-07T04:07:54;3.30;;;2.00;;
11767;SDS011;5941;57.652;12.514;2023-04-07T04:10:20;2.37;;;1.80;;
11767;SDS011;5941;57.652;12.514;2023-04-07T04:12:46;2.20;;;1.90;;
11767;SDS011;5941;57.652;12.514;2023-04-07T04:15:13;1.70;;;1.40;;
11767;SDS011;5941;57.652;12.514;2023-04-07T04:17:39;2.90;;;1.70;;
11767;SDS011;5941;57.652;12.514;2023-04-07T04:20:06;1.80;;;1.57;;
11767;SDS011;5941;57.652;12.514;2023-04-07T04:22:32;3.73;;;1.83;;
11767;SDS011;5941;57.652;12.514;2023-04-07T04:24:58;2.63;;;1.73;;
11767;SDS011;5941;57.652;12.514;2023-04-07T04:27:24;2.83;;;1.77;;
11767;SDS011;5941;57.652;12.514;2023-04-07T04:29:50;4.53;;;1.97;;
11767;SDS011;5941;57.652;12.514;2023-04-07T04:32:17;7.37;;;5.43;;
11767;SDS011;5941;57.652;12.514;2023-04-07T04:34:43;3.30;;;2.73;;
11767;SDS011;5941;57.652;12.514;2023-04-07T04:37:09;3.50;;;2.73;;
11767;SDS011;5941;57.652;12.514;2023-04-07T04:39:35;4.33;;;2.87;;
11767;SDS011;5941;57.652;12.514;2023-04-07T04:42:01;4.50;;;3.37;;
11767;SDS011;5941;57.652;12.514;2023-04-07T04:44:27;4.83;;;3.10;;
11767;SDS011;5941;57.652;12.514;2023-04-07T04:46:54;4.87;;;3.07;;
11767;SDS011;5941;57.652;12.514;2023-04-07T04:49:20;3.97;;;2.23;;
11767;SDS011;5941;57.652;12.514;2023-04-07T04:51:46;3.60;;;2.47;;
11767;SDS011;5941;57.652;12.514;2023-04-07T04:54:12;4.23;;;2.50;;
11767;SDS011;5941;57.652;12.514;2023-04-07T04:56:38;5.40;;;3.33;;
11767;SDS011;5941;57.652;12.514;2023-04-07T04:59:04;6.20;;;3.70;;
11767;SDS011;5941;57.652;12.514;2023-04-07T05:01:30;6.50;;;4.73;;
11767;SDS011;5941;57.652;12.514;2023-04-07T05:03:56;10.83;;;4.97;;
11767;SDS011;5941;57.652;12.514;2023-04-07T05:06:22;6.47;;;4.20;;
11767;SDS011;5941;57.652;12.514;2023-04-07T05:08:48;6.73;;;4.30;;
11767;SDS011;5941;57.652;12.514;2023-04-07T05:11:15;8.67;;;4.33;;
11767;SDS011;5941;57.652;12.514;2023-04-07T05:13:40;6.27;;;4.10;;
11767;SDS011;5941;57.652;12.514;2023-04-07T05:16:06;4.93;;;3.20;;
11767;SDS011;5941;57.652;12.514;2023-04-07T05:18:32;2.87;;;2.20;;
11767;SDS011;5941;57.652;12.514;2023-04-07T05:20:58;6.07;;;3.03;;
11767;SDS011;5941;57.652;12.514;2023-04-07T05:23:25;4.67;;;3.27;;
11767;SDS011;5941;57.652;12.514;2023-04-07T05:25:51;6.77;;;3.67;;
11767;SDS011;5941;57.652;12.514;2023-04-07T05:28:18;6.90;;;3.33;;
11767;SDS011;5941;57.652;12.514;2023-04-07T05:30:44;6.70;;;3.70;;
11767;SDS011;5941;57.652;12.514;2023-04-07T05:33:10;5.73;;;3.50;;
11767;SDS011;5941;57.652;12.514;2023-04-07T05:35:36;5.50;;;2.67;;
11767;SDS011;5941;57.652;12.514;2023-04-07T05:38:02;4.73;;;3.43;;
11767;SDS011;5941;57.652;12.514;2023-04-07T05:40:28;6.00;;;3.17;;
11767;SDS011;5941;57.652;12.514;2023-04-07T05:42:55;4.83;;;2.90;;
11767;SDS011;5941;57.652;12.514;2023-04-07T05:45:21;6.47;;;2.93;;
11767;SDS011;5941;57.652;12.514;2023-04-07T05:47:47;3.90;;;2.00;;
11767;SDS011;5941;57.652;12.514;2023-04-07T05:50:14;2.93;;;1.70;;
11767;SDS011;5941;57.652;12.514;2023-04-07T05:52:41;2.90;;;2.17;;
11767;SDS011;5941;57.652;12.514;2023-04-07T05:55:07;3.17;;;1.70;;
11767;SDS011;5941;57.652;12.514;2023-04-07T05:57:33;3.47;;;1.80;;
11767;SDS011;5941;57.652;12.514;2023-04-07T05:59:59;2.93;;;1.93;;
11767;SDS011;5941;57.652;12.514;2023-04-07T06:02:25;2.73;;;2.03;;
11767;SDS011;5941;57.652;12.514;2023-04-07T06:04:51;3.03;;;1.70;;
11767;SDS011;5941;57.652;12.514;2023-04-07T06:07:17;3.40;;;2.10;;
11767;SDS011;5941;57.652;12.514;2023-04-07T06:09:43;4.00;;;2.10;;
11767;SDS011;5941;57.652;12.514;2023-04-07T06:12:09;2.57;;;1.80;;
11767;SDS011;5941;57.652;12.514;2023-04-07T06:14:36;3.90;;;2.07;;
11767;SDS011;5941;57.652;12.514;2023-04-07T06:17:02;5.37;;;2.30;;
11767;SDS011;5941;57.652;12.514;2023-04-07T06:19:28;2.93;;;2.20;;
11767;SDS011;5941;57.652;12.514;2023-04-07T06:21:54;3.00;;;1.97;;
11767;SDS011;5941;57.652;12.514;2023-04-07T06:24:20;4.27;;;2.50;;
11767;SDS011;5941;57.652;12.514;2023-04-07T06:26:49;3.63;;;2.90;;
11767;SDS011;5941;57.652;12.514;2023-04-07T06:29:15;6.00;;;2.70;;
11767;SDS011;5941;57.652;12.514;2023-04-07T06:31:41;7.27;;;3.73;;
11767;SDS011;5941;57.652;12.514;2023-04-07T06:34:07;20.20;;;8.73;;
11767;SDS011;5941;57.652;12.514;2023-04-07T06:36:33;12.17;;;5.47;;
11767;SDS011;5941;57.652;12.514;2023-04-07T06:38:59;26.30;;;7.80;;
11767;SDS011;5941;57.652;12.514;2023-04-07T06:41:25;10.33;;;5.10;;
11767;SDS011;5941;57.652;12.514;2023-04-07T06:43:51;8.50;;;4.73;;
11767;SDS011;5941;57.652;12.514;2023-04-07T06:46:17;6.63;;;3.73;;
11767;SDS011;5941;57.652;12.514;2023-04-07T06:48:43;7.57;;;4.17;;
11767;SDS011;5941;57.652;12.514;2023-04-07T06:51:10;10.20;;;3.70;;
11767;SDS011;5941;57.652;12.514;2023-04-07T06:53:36;7.40;;;3.53;;
11767;SDS011;5941;57.652;12.514;2023-04-07T06:56:05;7.53;;;4.07;;
11767;SDS011;5941;57.652;12.514;2023-04-07T06:58:32;6.87;;;3.50;;
11767;SDS011;5941;57.652;12.514;2023-04-07T07:00:58;6.87;;;4.13;;
11767;SDS011;5941;57.652;12.514;2023-04-07T07:03:24;7.77;;;3.70;;
11767;SDS011;5941;57.652;12.514;2023-04-07T07:05:51;4.13;;;2.47;;
11767;SDS011;5941;57.652;12.514;2023-04-07T07:08:17;5.17;;;2.87;;
11767;SDS011;5941;57.652;12.514;2023-04-07T07:10:43;2.20;;;2.00;;
11767;SDS011;5941;57.652;12.514;2023-04-07T07:13:09;3.63;;;2.30;;
11767;SDS011;5941;57.652;12.514;2023-04-07T07:15:35;3.50;;;2.20;;
11767;SDS011;5941;57.652;12.514;2023-04-07T07:18:01;5.30;;;2.53;;
11767;SDS011;5941;57.652;12.514;2023-04-07T07:20:27;2.43;;;2.03;;
11767;SDS011;5941;57.652;12.514;2023-04-07T07:22:53;3.50;;;2.20;;
11767;SDS011;5941;57.652;12.514;2023-04-07T07:25:19;4.00;;;2.30;;
11767;SDS011;5941;57.652;12.514;2023-04-07T07:27:45;3.53;;;2.10;;
11767;SDS011;5941;57.652;12.514;2023-04-07T07:30:11;2.70;;;1.90;;
11767;SDS011;5941;57.652;12.514;2023-04-07T07:32:37;2.63;;;1.77;;
11767;SDS011;5941;57.652;12.514;2023-04-07T07:35:03;2.20;;;1.83;;
11767;SDS011;5941;57.652;12.514;2023-04-07T07:37:29;3.13;;;1.93;;
11767;SDS011;5941;57.652;12.514;2023-04-07T07:39:55;2.87;;;1.90;;
11767;SDS011;5941;57.652;12.514;2023-04-07T07:42:21;3.37;;;1.70;;
11767;SDS011;5941;57.652;12.514;2023-04-07T07:44:47;2.83;;;1.60;;
11767;SDS011;5941;57.652;12.514;2023-04-07T07:47:13;3.53;;;1.70;;
11767;SDS011;5941;57.652;12.514;2023-04-07T07:49:39;1.63;;;1.53;;
11767;SDS011;5941;57.652;12.514;2023-04-07T07:52:05;1.60;;;1.47;;
11767;SDS011;5941;57.652;12.514;2023-04-07T07:54:32;3.27;;;1.57;;
11767;SDS011;5941;57.652;12.514;2023-04-07T07:56:58;3.03;;;1.90;;
11767;SDS011;5941;57.652;12.514;2023-04-07T07:59:24;2.00;;;1.43;;
11767;SDS011;5941;57.652;12.514;2023-04-07T08:01:50;1.63;;;1.50;;
11767;SDS011;5941;57.652;12.514;2023-04-07T08:04:16;3.87;;;1.90;;
11767;SDS011;5941;57.652;12.514;2023-04-07T08:06:42;3.30;;;1.90;;
11767;SDS011;5941;57.652;12.514;2023-04-07T08:09:08;2.97;;;1.57;;
11767;SDS011;5941;57.652;12.514;2023-04-07T08:11:34;2.27;;;1.50;;
11767;SDS011;5941;57.652;12.514;2023-04-07T08:14:00;3.10;;;1.77;;
11767;SDS011;5941;57.652;12.514;2023-04-07T08:16:26;2.17;;;1.40;;
11767;SDS011;5941;57.652;12.514;2023-04-07T08:18:52;3.67;;;1.90;;
11767;SDS011;5941;57.652;12.514;2023-04-07T08:21:18;3.70;;;1.77;;
11767;SDS011;5941;57.652;12.514;2023-04-07T08:23:45;3.93;;;1.60;;
11767;SDS011;5941;57.652;12.514;2023-04-07T08:26:11;2.10;;;1.40;;
11767;SDS011;5941;57.652;12.514;2023-04-07T08:28:37;2.43;;;1.33;;
11767;SDS011;5941;57.652;12.514;2023-04-07T08:31:03;3.53;;;1.47;;
11767;SDS011;5941;57.652;12.514;2023-04-07T08:33:29;2.97;;;1.20;;
11767;SDS011;5941;57.652;12.514;2023-04-07T08:35:55;1.40;;;1.30;;
11767;SDS011;5941;57.652;12.514;2023-04-07T08:38:21;1.93;;;1.40;;
11767;SDS011;5941;57.652;12.514;2023-04-07T08:40:48;1.27;;;1.17;;
11767;SDS011;5941;57.652;12.514;2023-04-07T08:43:18;1.43;;;1.27;;
11767;SDS011;5941;57.652;12.514;2023-04-07T08:45:44;2.60;;;1.30;;
11767;SDS011;5941;57.652;12.514;2023-04-07T08:48:17;2.30;;;1.20;;
11767;SDS011;5941;57.652;12.514;2023-04-07T08:50:43;3.10;;;1.33;;
11767;SDS011;5941;57.652;12.514;2023-04-07T08:53:10;27.90;;;3.47;;
11767;SDS011;5941;57.652;12.514;2023-04-07T08:55:37;1.30;;;1.00;;
11767;SDS011;5941;57.652;12.514;2023-04-07T08:58:03;1.80;;;1.27;;
11767;SDS011;5941;57.652;12.514;2023-04-07T09:00:30;1.40;;;1.10;;
11767;SDS011;5941;57.652;12.514;2023-04-07T09:02:56;1.80;;;1.57;;
11767;SDS011;5941;57.652;12.514;2023-04-07T09:05:22;2.17;;;1.10;;
11767;SDS011;5941;57.652;12.514;2023-04-07T09:07:49;0.83;;;0.80;;
11767;SDS011;5941;57.652;12.514;2023-04-07T09:10:15;1.60;;;0.80;;
11767;SDS011;5941;57.652;12.514;2023-04-07T09:12:41;1.20;;;1.00;;
11767;SDS011;5941;57.652;12.514;2023-04-07T09:15:07;2.10;;;0.93;;
11767;SDS011;5941;57.652;12.514;2023-04-07T09:17:33;1.00;;;0.80;;
11767;SDS011;5941;57.652;12.514;2023-04-07T09:19:59;1.23;;;0.90;;
11767;SDS011;5941;57.652;12.514;2023-04-07T09:22:36;0.93;;;0.80;;
11767;SDS011;5941;57.652;12.514;2023-04-07T09:25:35;1.00;;;0.77;;
11767;SDS011;5941;57.652;12.514;2023-04-07T09:30:27;5.53;;;1.00;;
11767;SDS011;5941;57.652;12.514;2023-04-07T09:32:53;2.07;;;0.83;;
11767;SDS011;5941;57.652;12.514;2023-04-07T09:35:19;0.60;;;0.60;;
11767;SDS011;5941;57.652;12.514;2023-04-07T09:37:59;1.73;;;0.90;;
11767;SDS011;5941;57.652;12.514;2023-04-07T09:40:26;1.03;;;0.70;;
11767;SDS011;5941;57.652;12.514;2023-04-07T09:42:52;2.87;;;1.00;;
11767;SDS011;5941;57.652;12.514;2023-04-07T09:45:25;0.80;;;0.60;;
11767;SDS011;5941;57.652;12.514;2023-04-07T09:47:51;0.93;;;0.80;;
11767;SDS011;5941;57.652;12.514;2023-04-07T09:50:30;0.87;;;0.67;;
11767;SDS011;5941;57.652;12.514;2023-04-07T09:52:58;1.10;;;0.60;;
11767;SDS011;5941;57.652;12.514;2023-04-07T09:55:25;0.70;;;0.70;;
11767;SDS011;5941;57.652;12.514;2023-04-07T09:57:52;1.23;;;0.80;;
11767;SDS011;5941;57.652;12.514;2023-04-07T10:00:19;0.77;;;0.70;;
11767;SDS011;5941;57.652;12.514;2023-04-07T10:02:45;0.80;;;0.80;;
11767;SDS011;5941;57.652;12.514;2023-04-07T10:05:11;1.03;;;0.50;;
11767;SDS011;5941;57.652;12.514;2023-04-07T10:07:38;0.60;;;0.60;;
11767;SDS011;5941;57.652;12.514;2023-04-07T10:10:04;1.60;;;0.90;;
11767;SDS011;5941;57.652;12.514;2023-04-07T10:12:33;0.93;;;0.70;;
11767;SDS011;5941;57.652;12.514;2023-04-07T10:14:59;1.07;;;0.83;;
11767;SDS011;5941;57.652;12.514;2023-04-07T10:17:28;0.80;;;0.80;;
11767;SDS011;5941;57.652;12.514;2023-04-07T10:19:55;1.07;;;0.73;;
11767;SDS011;5941;57.652;12.514;2023-04-07T10:22:23;0.70;;;0.70;;
11767;SDS011;5941;57.652;12.514;2023-04-07T10:27:58;0.77;;;0.77;;
11767;SDS011;5941;57.652;12.514;2023-04-07T10:30:17;1.07;;;0.70;;
11767;SDS011;5941;57.652;12.514;2023-04-07T10:32:46;0.63;;;0.63;;
11767;SDS011;5941;57.652;12.514;2023-04-07T10:35:12;1.00;;;0.80;;
11767;SDS011;5941;57.652;12.514;2023-04-07T10:37:39;0.70;;;0.70;;
11767;SDS011;5941;57.652;12.514;2023-04-07T10:42:46;0.80;;;0.80;;
11767;SDS011;5941;57.652;12.514;2023-04-07T10:45:12;1.20;;;1.10;;
11767;SDS011;5941;57.652;12.514;2023-04-07T10:50:22;1.20;;;0.83;;
11767;SDS011;5941;57.652;12.514;2023-04-07T10:53:01;1.07;;;0.80;;
11767;SDS011;5941;57.652;12.514;2023-04-07T10:55:33;1.00;;;0.90;;
11767;SDS011;5941;57.652;12.514;2023-04-07T11:03:30;1.57;;;1.00;;
11767;SDS011;5941;57.652;12.514;2023-04-07T11:06:03;1.00;;;0.90;;
11767;SDS011;5941;57.652;12.514;2023-04-07T11:08:33;0.97;;;0.80;;
11767;SDS011;5941;57.652;12.514;2023-04-07T11:11:00;1.73;;;1.30;;
11767;SDS011;5941;57.652;12.514;2023-04-07T11:13:26;1.97;;;0.90;;
11767;SDS011;5941;57.652;12.514;2023-04-07T11:15:52;1.97;;;0.90;;
11767;SDS011;5941;57.652;12.514;2023-04-07T11:18:19;1.03;;;0.93;;
11767;SDS011;5941;57.652;12.514;2023-04-07T11:20:55;1.47;;;1.00;;
11767;SDS011;5941;57.652;12.514;2023-04-07T11:23:25;0.80;;;0.80;;
11767;SDS011;5941;57.652;12.514;2023-04-07T11:26:01;1.40;;;0.90;;
11767;SDS011;5941;57.652;12.514;2023-04-07T11:28:27;1.53;;;0.90;;
11767;SDS011;5941;57.652;12.514;2023-04-07T11:30:54;1.90;;;1.10;;
11767;SDS011;5941;57.652;12.514;2023-04-07T11:33:21;0.83;;;0.83;;
11767;SDS011;5941;57.652;12.514;2023-04-07T11:35:51;1.67;;;0.90;;
11767;SDS011;5941;57.652;12.514;2023-04-07T11:38:17;1.20;;;1.00;;
11767;SDS011;5941;57.652;12.514;2023-04-07T11:40:44;0.80;;;0.80;;
11767;SDS011;5941;57.652;12.514;2023-04-07T11:43:20;1.10;;;1.00;;
11767;SDS011;5941;57.652;12.514;2023-04-07T11:46:03;1.07;;;0.87;;
11767;SDS011;5941;57.652;12.514;2023-04-07T11:48:30;1.20;;;1.10;;
11767;SDS011;5941;57.652;12.514;2023-04-07T11:50:56;1.27;;;1.00;;
11767;SDS011;5941;57.652;12.514;2023-04-07T11:53:29;0.90;;;0.90;;
11767;SDS011;5941;57.652;12.514;2023-04-07T11:55:59;2.23;;;2.03;;
11767;SDS011;5941;57.652;12.514;2023-04-07T11:58:25;2.30;;;2.10;;
11767;SDS011;5941;57.652;12.514;2023-04-07T12:00:52;2.47;;;1.90;;
11767;SDS011;5941;57.652;12.514;2023-04-07T12:03:18;1.50;;;1.40;;
11767;SDS011;5941;57.652;12.514;2023-04-07T12:05:44;1.20;;;1.10;;
11767;SDS011;5941;57.652;12.514;2023-04-07T12:08:11;1.20;;;1.00;;
11767;SDS011;5941;57.652;12.514;2023-04-07T12:10:38;0.83;;;0.80;;
11767;SDS011;5941;57.652;12.514;2023-04-07T12:13:05;0.90;;;0.90;;
11767;SDS011;5941;57.652;12.514;2023-04-07T12:15:31;1.27;;;0.90;;
11767;SDS011;5941;57.652;12.514;2023-04-07T12:17:57;1.20;;;0.90;;
11767;SDS011;5941;57.652;12.514;2023-04-07T12:20:23;0.70;;;0.70;;
11767;SDS011;5941;57.652;12.514;2023-04-07T12:22:49;1.17;;;0.90;;
11767;SDS011;5941;57.652;12.514;2023-04-07T12:25:16;1.60;;;1.10;;
11767;SDS011;5941;57.652;12.514;2023-04-07T12:27:42;1.63;;;1.20;;
11767;SDS011;5941;57.652;12.514;2023-04-07T12:30:08;1.37;;;1.07;;
11767;SDS011;5941;57.652;12.514;2023-04-07T12:32:34;1.10;;;1.00;;
11767;SDS011;5941;57.652;12.514;2023-04-07T12:35:01;1.00;;;0.90;;
11767;SDS011;5941;57.652;12.514;2023-04-07T12:37:27;2.43;;;1.10;;
11767;SDS011;5941;57.652;12.514;2023-04-07T12:39:53;1.43;;;1.07;;
11767;SDS011;5941;57.652;12.514;2023-04-07T12:42:19;1.70;;;1.03;;
11767;SDS011;5941;57.652;12.514;2023-04-07T12:44:45;1.33;;;0.93;;
11767;SDS011;5941;57.652;12.514;2023-04-07T12:47:11;1.27;;;1.07;;
11767;SDS011;5941;57.652;12.514;2023-04-07T12:49:37;1.53;;;1.10;;
11767;SDS011;5941;57.652;12.514;2023-04-07T12:52:03;1.20;;;1.10;;
11767;SDS011;5941;57.652;12.514;2023-04-07T12:54:30;1.30;;;0.80;;
11767;SDS011;5941;57.652;12.514;2023-04-07T12:56:56;1.10;;;0.90;;
11767;SDS011;5941;57.652;12.514;2023-04-07T12:59:22;1.53;;;0.80;;
11767;SDS011;5941;57.652;12.514;2023-04-07T13:01:48;1.10;;;0.80;;
11767;SDS011;5941;57.652;12.514;2023-04-07T13:04:14;2.40;;;1.20;;
11767;SDS011;5941;57.652;12.514;2023-04-07T13:06:41;0.50;;;0.50;;
11767;SDS011;5941;57.652;12.514;2023-04-07T13:09:07;1.57;;;1.23;;
11767;SDS011;5941;57.652;12.514;2023-04-07T13:11:33;0.70;;;0.70;;
11767;SDS011;5941;57.652;12.514;2023-04-07T13:14:00;1.10;;;0.70;;
11767;SDS011;5941;57.652;12.514;2023-04-07T13:16:26;0.60;;;0.60;;
11767;SDS011;5941;57.652;12.514;2023-04-07T13:18:52;0.80;;;0.70;;
11767;SDS011;5941;57.652;12.514;2023-04-07T13:21:18;1.20;;;0.90;;
11767;SDS011;5941;57.652;12.514;2023-04-07T13:23:44;1.27;;;0.80;;
11767;SDS011;5941;57.652;12.514;2023-04-07T13:26:10;1.17;;;0.83;;
11767;SDS011;5941;57.652;12.514;2023-04-07T13:28:36;0.70;;;0.70;;
11767;SDS011;5941;57.652;12.514;2023-04-07T13:31:02;1.30;;;0.70;;
11767;SDS011;5941;57.652;12.514;2023-04-07T13:33:28;1.23;;;0.87;;
11767;SDS011;5941;57.652;12.514;2023-04-07T13:35:54;0.53;;;0.53;;
11767;SDS011;5941;57.652;12.514;2023-04-07T13:38:20;1.17;;;0.97;;
11767;SDS011;5941;57.652;12.514;2023-04-07T13:40:46;1.47;;;1.07;;
11767;SDS011;5941;57.652;12.514;2023-04-07T13:43:13;0.80;;;0.70;;
11767;SDS011;5941;57.652;12.514;2023-04-07T13:45:39;1.10;;;0.80;;
11767;SDS011;5941;57.652;12.514;2023-04-07T13:48:05;0.80;;;0.80;;
11767;SDS011;5941;57.652;12.514;2023-04-07T13:50:34;1.00;;;0.90;;
11767;SDS011;5941;57.652;12.514;2023-04-07T13:53:00;0.70;;;0.70;;
11767;SDS011;5941;57.652;12.514;2023-04-07T13:55:26;1.03;;;0.80;;
11767;SDS011;5941;57.652;12.514;2023-04-07T13:57:52;1.93;;;0.90;;
11767;SDS011;5941;57.652;12.514;2023-04-07T14:00:18;1.13;;;0.80;;
11767;SDS011;5941;57.652;12.514;2023-04-07T14:02:44;0.80;;;0.80;;
11767;SDS011;5941;57.652;12.514;2023-04-07T14:05:12;4.73;;;0.93;;
11767;SDS011;5941;57.652;12.514;2023-04-07T14:07:38;1.97;;;1.20;;
11767;SDS011;5941;57.652;12.514;2023-04-07T14:10:04;1.50;;;1.00;;
11767;SDS011;5941;57.652;12.514;2023-04-07T14:12:30;2.20;;;0.90;;
11767;SDS011;5941;57.652;12.514;2023-04-07T14:14:56;5.17;;;1.20;;
11767;SDS011;5941;57.652;12.514;2023-04-07T14:17:22;4.20;;;1.37;;
11767;SDS011;5941;57.652;12.514;2023-04-07T14:19:48;2.67;;;1.17;;
11767;SDS011;5941;57.652;12.514;2023-04-07T14:22:14;2.30;;;1.10;;
11767;SDS011;5941;57.652;12.514;2023-04-07T14:24:40;5.33;;;1.20;;
11767;SDS011;5941;57.652;12.514;2023-04-07T14:27:06;0.90;;;0.90;;
11767;SDS011;5941;57.652;12.514;2023-04-07T14:29:32;5.97;;;1.10;;
11767;SDS011;5941;57.652;12.514;2023-04-07T14:31:58;1.30;;;1.20;;
11767;SDS011;5941;57.652;12.514;2023-04-07T14:34:24;2.10;;;1.30;;
11767;SDS011;5941;57.652;12.514;2023-04-07T14:36:56;0.83;;;0.83;;
11767;SDS011;5941;57.652;12.514;2023-04-07T14:39:22;1.07;;;1.00;;
11767;SDS011;5941;57.652;12.514;2023-04-07T14:41:49;1.57;;;1.00;;
11767;SDS011;5941;57.652;12.514;2023-04-07T14:44:15;1.23;;;1.10;;
11767;SDS011;5941;57.652;12.514;2023-04-07T14:46:41;2.27;;;1.20;;
11767;SDS011;5941;57.652;12.514;2023-04-07T14:49:07;1.10;;;0.90;;
11767;SDS011;5941;57.652;12.514;2023-04-07T14:51:33;2.07;;;1.10;;
11767;SDS011;5941;57.652;12.514;2023-04-07T14:53:59;1.70;;;1.10;;
11767;SDS011;5941;57.652;12.514;2023-04-07T14:56:26;1.30;;;1.00;;
11767;SDS011;5941;57.652;12.514;2023-04-07T14:58:52;1.77;;;1.07;;
11767;SDS011;5941;57.652;12.514;2023-04-07T15:01:18;1.53;;;1.13;;
11767;SDS011;5941;57.652;12.514;2023-04-07T15:03:44;1.00;;;0.90;;
11767;SDS011;5941;57.652;12.514;2023-04-07T15:06:11;2.33;;;1.03;;
11767;SDS011;5941;57.652;12.514;2023-04-07T15:08:38;1.00;;;0.77;;